createdAt,value
2022-12-08T00:01:41.251Z,99823.27
2022-12-08T00:04:10.500Z,99828.33
2022-12-08T00:07:00.604Z,99836.40
2022-12-08T00:09:38.733Z,99840.61
2022-12-08T00:12:10.739Z,99839.79
2022-12-08T00:14:44.326Z,99840.08
2022-12-08T00:17:14.495Z,99847.62
2022-12-08T00:19:43.663Z,99844.63
2022-12-08T00:22:13.442Z,99847.20
2022-12-08T00:24:44.982Z,99850.59
2022-12-08T00:27:15.711Z,99855.55
2022-12-08T00:29:46.081Z,99858.77
2022-12-08T00:32:14.703Z,99864.64
2022-12-08T00:34:42.547Z,99861.13
2022-12-08T00:37:10.501Z,99863.34
2022-12-08T00:39:38.488Z,99862.08
2022-12-08T00:42:12.454Z,99864.58
2022-12-08T00:44:41.951Z,99872.39
2022-12-08T00:47:10.212Z,99875.11
2022-12-08T00:49:38.177Z,99873.84
2022-12-08T00:52:06.264Z,99874.76
2022-12-08T00:54:34.091Z,99879.33
2022-12-08T00:57:02.194Z,99879.58
2022-12-08T00:59:30.442Z,99890.83
2022-12-08T01:01:58.316Z,99895.73
2022-12-08T01:04:26.338Z,99896.18
2022-12-08T01:06:54.466Z,99899.55
2022-12-08T01:09:22.299Z,99903.45
2022-12-08T01:11:50.821Z,99901.59
2022-12-08T01:14:19.014Z,99904.09
2022-12-08T01:16:46.989Z,99904.39
2022-12-08T01:19:17.042Z,99906.70
2022-12-08T01:21:46.574Z,99906.73
2022-12-08T01:24:19.693Z,99908.37
2022-12-08T01:26:49.895Z,99904.43
2022-12-08T01:29:18.118Z,99901.36
2022-12-08T01:31:46.446Z,99905.56
2022-12-08T01:34:14.842Z,99905.09
2022-12-08T01:36:44.499Z,99905.45
2022-12-08T01:39:18.068Z,99902.56
2022-12-08T01:41:47.887Z,99901.38
2022-12-08T01:44:15.692Z,99902.13
2022-12-08T01:46:46.000Z,99906.51
2022-12-08T01:49:18.917Z,99907.08
2022-12-08T01:52:10.091Z,99908.02
2022-12-08T01:54:49.689Z,99911.34
2022-12-08T01:57:24.370Z,99911.73
2022-12-08T02:00:02.876Z,99914.85
2022-12-08T02:02:46.762Z,99911.69
2022-12-08T02:05:16.301Z,99910.42
2022-12-08T02:07:44.920Z,99910.10
2022-12-08T02:10:16.729Z,99916.76
2022-12-08T02:12:45.128Z,99917.81
2022-12-08T02:15:14.431Z,99921.27
2022-12-08T02:18:09.696Z,99920.25
2022-12-08T02:20:46.229Z,99922.52
2022-12-08T02:23:25.604Z,99919.88
2022-12-08T02:26:15.267Z,99919.36
2022-12-08T02:29:04.893Z,99918.83
2022-12-08T02:31:54.289Z,99917.84
2022-12-08T02:34:28.372Z,99916.32
2022-12-08T02:37:01.744Z,99922.29
2022-12-08T02:39:40.227Z,99923.06
2022-12-08T02:42:22.685Z,99927.29
2022-12-08T02:45:16.897Z,99930.63
2022-12-08T02:47:45.220Z,99931.36
2022-12-08T02:50:13.251Z,99930.33
2022-12-08T02:52:48.273Z,99928.82
2022-12-08T02:55:40.037Z,99927.67
2022-12-08T02:58:46.551Z,99927.55
2022-12-08T03:01:48.975Z,99926.43
2022-12-08T03:04:28.547Z,99927.97
2022-12-08T03:07:15.351Z,99934.60
2022-12-08T03:09:51.392Z,99940.41
2022-12-08T03:12:30.988Z,99946.42
2022-12-08T03:15:11.565Z,99952.24
2022-12-08T03:17:43.544Z,99958.05
2022-12-08T03:20:17.452Z,99959.14
2022-12-08T03:22:47.203Z,99960.38
2022-12-08T03:25:17.164Z,99962.79
2022-12-08T03:27:45.234Z,99960.48
2022-12-08T03:30:13.443Z,99962.88
2022-12-08T03:32:50.335Z,99965.79
2022-12-08T03:35:25.386Z,99954.31
2022-12-08T03:38:04.674Z,99965.73
2022-12-08T03:40:33.035Z,99963.60
2022-12-08T03:43:00.942Z,99960.90
2022-12-08T03:45:29.184Z,99966.50
2022-12-08T03:47:58.362Z,99967.50
2022-12-08T03:50:26.411Z,99970.42
2022-12-08T03:52:54.319Z,99972.48
2022-12-08T03:55:22.245Z,99973.67
2022-12-08T03:57:50.306Z,99975.72
2022-12-08T04:00:18.443Z,99979.09
2022-12-08T04:02:46.629Z,99980.71
2022-12-08T04:05:14.594Z,99986.00
2022-12-08T04:07:42.639Z,99988.09
2022-12-08T04:10:10.974Z,99991.61
2022-12-08T04:12:38.932Z,99991.59
2022-12-08T04:15:07.480Z,99992.45
2022-12-08T04:17:35.426Z,99997.58
2022-12-08T04:20:03.992Z,100006.00
2022-12-08T04:22:32.117Z,99998.05
2022-12-08T04:25:00.363Z,100002.06
2022-12-08T04:27:28.447Z,100002.58
2022-12-08T04:29:56.443Z,100003.88
2022-12-08T04:32:24.484Z,100009.51
2022-12-08T04:34:52.383Z,100011.86
2022-12-08T04:37:20.309Z,100013.87
2022-12-08T04:39:48.222Z,100007.03
2022-12-08T04:42:16.743Z,100014.16
2022-12-08T04:44:44.980Z,99990.21
2022-12-08T04:47:13.344Z,100011.40
2022-12-08T04:49:41.378Z,100011.17
2022-12-08T04:52:09.563Z,100013.34
2022-12-08T04:54:37.555Z,100014.17
2022-12-08T04:57:05.449Z,100017.34
2022-12-08T04:59:33.407Z,100018.40
2022-12-08T05:02:01.604Z,100018.33
2022-12-08T05:04:29.839Z,100013.36
2022-12-08T05:06:58.075Z,100008.17
2022-12-08T05:09:26.199Z,100008.84
2022-12-08T05:11:54.151Z,100007.96
2022-12-08T05:14:22.233Z,100010.58
2022-12-08T05:16:50.385Z,100015.13
2022-12-08T05:19:18.474Z,100014.86
2022-12-08T05:21:46.562Z,100016.75
2022-12-08T05:24:14.600Z,100016.73
2022-12-08T05:26:42.468Z,100012.52
2022-12-08T05:29:10.593Z,100018.41
2022-12-08T05:31:38.649Z,100011.79
2022-12-08T05:34:06.572Z,100008.88
2022-12-08T05:36:34.865Z,100005.07
2022-12-08T05:39:03.556Z,100007.23
2022-12-08T05:41:31.427Z,100015.23
2022-12-08T05:43:59.390Z,100019.48
2022-12-08T05:46:28.581Z,100020.66
2022-12-08T05:48:56.451Z,100030.90
2022-12-08T05:51:24.712Z,100036.92
2022-12-08T05:53:53.132Z,100037.41
2022-12-08T05:56:22.050Z,100043.80
2022-12-08T05:58:50.452Z,100042.58
2022-12-08T06:01:26.039Z,100044.58
2022-12-08T06:03:55.495Z,100046.23
2022-12-08T06:06:23.578Z,100057.42
2022-12-08T06:08:51.828Z,100060.59
2022-12-08T06:11:25.662Z,100064.28
2022-12-08T06:13:54.631Z,100068.84
2022-12-08T06:16:24.434Z,100069.04
2022-12-08T06:18:52.746Z,100073.82
2022-12-08T06:21:20.936Z,100076.31
2022-12-08T06:23:50.772Z,100078.25
2022-12-08T06:26:20.283Z,100079.69
2022-12-08T06:28:49.818Z,100077.92
2022-12-08T06:31:23.653Z,100071.83
2022-12-08T06:33:52.324Z,100073.94
2022-12-08T06:36:23.570Z,100072.23
2022-12-08T06:38:52.163Z,100073.98
2022-12-08T06:41:20.402Z,100077.50
2022-12-08T06:43:48.775Z,100084.12
2022-12-08T06:46:19.916Z,100084.77
2022-12-08T06:48:48.222Z,100071.63
2022-12-08T06:51:19.599Z,100096.36
2022-12-08T06:53:47.843Z,100101.17
2022-12-08T06:56:16.497Z,100102.31
2022-12-08T06:58:50.435Z,100103.16
2022-12-08T07:01:20.648Z,100107.52
2022-12-08T07:03:48.737Z,100108.21
2022-12-08T07:06:21.757Z,100109.81
2022-12-08T07:08:50.229Z,100116.60
2022-12-08T07:11:21.871Z,100106.69
2022-12-08T07:13:51.013Z,100119.23
2022-12-08T07:16:19.129Z,100119.55
2022-12-08T07:18:47.350Z,100119.20
2022-12-08T07:21:16.817Z,100120.34
2022-12-08T07:23:55.789Z,100116.65
2022-12-08T07:26:27.051Z,100111.86
2022-12-08T07:28:55.236Z,100111.59
2022-12-08T07:31:25.849Z,100115.23
2022-12-08T07:33:55.295Z,100115.39
2022-12-08T07:36:24.796Z,100113.83
2022-12-08T07:38:53.892Z,100114.16
2022-12-08T07:41:24.966Z,100113.44
2022-12-08T07:43:54.060Z,100113.48
2022-12-08T07:46:23.866Z,100114.98
2022-12-08T07:48:57.321Z,100117.41
2022-12-08T07:51:25.395Z,100114.41
2022-12-08T07:53:54.416Z,100116.73
2022-12-08T07:56:23.464Z,100122.46
2022-12-08T07:58:51.615Z,100121.30
2022-12-08T08:01:31.600Z,100124.85
2022-12-08T08:04:02.130Z,100124.33
2022-12-08T08:06:31.483Z,100125.23
2022-12-08T08:08:59.997Z,100117.36
2022-12-08T08:11:28.319Z,100120.52
2022-12-08T08:13:57.638Z,100122.77
2022-12-08T08:16:25.853Z,100126.02
2022-12-08T08:18:54.283Z,100125.99
2022-12-08T08:21:45.064Z,100128.23
2022-12-08T08:24:10.592Z,100132.71
2022-12-08T08:26:38.580Z,100117.89
2022-12-08T08:29:06.421Z,100135.59
2022-12-08T08:31:34.485Z,100136.83
2022-12-08T08:34:06.486Z,100136.55
2022-12-08T08:36:34.585Z,100135.38
2022-12-08T08:39:03.784Z,100138.41
2022-12-08T08:41:31.814Z,100143.30
2022-12-08T08:43:59.612Z,100138.96
2022-12-08T08:46:27.852Z,100140.41
2022-12-08T08:48:56.026Z,100142.12
2022-12-08T08:51:24.498Z,100143.86
2022-12-08T08:53:52.598Z,100145.96
2022-12-08T08:56:20.572Z,100145.80
2022-12-08T08:58:49.657Z,100144.27
2022-12-08T09:01:23.927Z,100143.11
2022-12-08T09:03:52.689Z,100143.16
2022-12-08T09:06:20.725Z,100141.16
2022-12-08T09:08:49.256Z,100139.08
2022-12-08T09:11:18.776Z,100139.61
2022-12-08T09:13:51.555Z,100140.10
2022-12-08T09:16:20.107Z,100141.77
2022-12-08T09:18:49.656Z,100141.91
2022-12-08T09:21:23.087Z,100143.00
2022-12-08T09:23:57.397Z,100139.88
2022-12-08T09:26:27.344Z,100142.11
2022-12-08T09:28:56.964Z,100138.30
2022-12-08T09:31:25.243Z,100135.33
2022-12-08T09:33:53.292Z,100132.43
2022-12-08T09:36:21.811Z,100127.94
2022-12-08T09:38:51.132Z,100127.41
2022-12-08T09:41:40.375Z,100122.30
2022-12-08T09:44:23.649Z,100123.73
2022-12-08T09:46:53.102Z,100114.94
2022-12-08T09:49:26.837Z,100121.04
2022-12-08T09:51:55.131Z,100122.23
2022-12-08T09:54:30.656Z,100116.66
2022-12-08T09:57:03.129Z,100119.61
2022-12-08T09:59:34.569Z,100120.71
2022-12-08T10:02:14.379Z,100114.48
2022-12-08T10:04:42.523Z,100109.61
2022-12-08T10:07:35.968Z,100108.36
2022-12-08T10:10:13.168Z,100105.74
2022-12-08T10:12:52.045Z,100105.08
2022-12-08T10:15:41.882Z,100101.35
2022-12-08T10:18:27.476Z,100100.50
2022-12-08T10:21:05.624Z,100095.23
2022-12-08T10:23:36.767Z,100091.11
2022-12-08T10:26:08.158Z,100090.88
2022-12-08T10:28:40.060Z,100083.02
2022-12-08T10:31:16.632Z,100088.67
2022-12-08T10:33:45.472Z,100082.27
2022-12-08T10:36:13.416Z,100083.39
2022-12-08T10:38:41.499Z,100084.30
2022-12-08T10:41:09.470Z,100085.88
2022-12-08T10:43:46.696Z,100076.02
2022-12-08T10:46:20.440Z,100080.20
2022-12-08T10:49:00.357Z,100055.03
2022-12-08T10:51:30.147Z,100075.36
2022-12-08T10:53:58.559Z,100073.69
2022-12-08T10:56:31.615Z,100070.08
2022-12-08T10:59:06.246Z,100051.47
2022-12-08T11:01:39.188Z,100063.34
2022-12-08T11:04:15.614Z,100057.71
2022-12-08T11:06:44.047Z,100060.95
2022-12-08T11:09:17.857Z,100056.25
2022-12-08T11:11:50.082Z,100053.23
2022-12-08T11:14:27.122Z,100043.21
2022-12-08T11:17:03.967Z,100042.98
2022-12-08T11:19:36.647Z,100040.80
2022-12-08T11:22:31.179Z,100037.88
2022-12-08T11:25:10.372Z,100037.98
2022-12-08T11:27:47.815Z,100035.44
2022-12-08T11:30:22.505Z,100031.35
2022-12-08T11:33:16.708Z,100035.45
2022-12-08T11:35:50.014Z,100016.37
2022-12-08T11:38:24.496Z,100032.95
2022-12-08T11:40:57.271Z,100033.89
2022-12-08T11:43:34.461Z,100032.90
2022-12-08T11:46:09.943Z,100030.21
2022-12-08T11:48:45.426Z,100033.27
2022-12-08T11:51:18.887Z,100031.70
2022-12-08T11:53:49.837Z,100032.21
2022-12-08T11:56:35.161Z,100030.36
2022-12-08T11:59:15.579Z,100030.01
2022-12-08T12:01:43.680Z,100030.95
2022-12-08T12:04:36.799Z,100033.67
2022-12-08T12:07:07.614Z,100039.44
2022-12-08T12:09:44.354Z,100038.64
2022-12-08T12:12:39.779Z,100030.05
2022-12-08T12:15:39.879Z,100025.37
2022-12-08T12:18:40.319Z,100024.00
2022-12-08T12:21:11.925Z,100019.02
2022-12-08T12:23:58.651Z,100010.58
2022-12-08T12:26:32.333Z,100013.39
2022-12-08T12:29:16.222Z,100005.90
2022-12-08T12:31:50.232Z,100004.19
2022-12-08T12:34:22.174Z,100003.99
2022-12-08T12:37:07.692Z,99997.93
2022-12-08T12:39:47.112Z,99999.45
2022-12-08T12:42:51.039Z,99994.30
2022-12-08T12:45:20.170Z,99998.55
2022-12-08T12:47:55.585Z,99999.86
2022-12-08T12:50:33.990Z,99993.52
2022-12-08T12:53:18.050Z,99988.16
2022-12-08T12:55:46.294Z,99989.42
2022-12-08T12:58:29.739Z,99983.42
2022-12-08T13:01:10.392Z,99981.31
2022-12-08T13:03:45.962Z,99980.41
2022-12-08T13:06:21.362Z,99978.28
2022-12-08T13:08:54.486Z,99979.30
2022-12-08T13:11:24.314Z,99977.60
2022-12-08T13:14:05.214Z,99975.95
2022-12-08T13:16:39.165Z,99978.43
2022-12-08T13:19:15.126Z,99979.06
2022-12-08T13:21:43.629Z,99977.92
2022-12-08T13:24:14.673Z,99981.08
2022-12-08T13:26:46.801Z,99977.73
2022-12-08T13:29:20.672Z,99965.88
2022-12-08T13:31:53.270Z,99976.16
2022-12-08T13:34:35.803Z,99977.34
2022-12-08T13:37:12.681Z,99976.09
2022-12-08T13:39:40.670Z,99974.94
2022-12-08T13:42:17.696Z,99969.33
2022-12-08T13:57:05.159Z,99959.05
2022-12-08T13:59:34.489Z,99953.16
2022-12-08T14:02:13.177Z,99955.14
2022-12-08T14:07:34.851Z,99955.00
2022-12-08T14:10:04.137Z,99954.79
2022-12-08T14:12:32.416Z,99955.05
2022-12-08T14:15:05.165Z,99956.98
2022-12-08T14:17:33.967Z,99943.00
2022-12-08T14:20:23.864Z,99957.93
2022-12-08T14:22:53.462Z,99960.99
2022-12-08T14:25:23.321Z,99963.68
2022-12-08T14:27:59.440Z,99965.13
2022-12-08T14:30:36.324Z,99968.84
2022-12-08T14:33:05.605Z,99971.66
2022-12-08T14:35:37.335Z,99967.37
2022-12-08T14:38:17.436Z,99966.16
2022-12-08T14:41:09.730Z,99963.96
2022-12-08T14:43:37.972Z,99968.68
2022-12-08T14:46:24.300Z,99969.60
2022-12-08T14:48:53.912Z,99969.73
2022-12-08T14:51:21.827Z,99965.83
2022-12-08T14:54:01.245Z,99967.32
2022-12-08T14:56:51.908Z,99964.23
2022-12-08T14:59:23.183Z,99968.11
2022-12-08T15:01:54.192Z,99965.15
2022-12-08T15:04:28.970Z,99964.98
2022-12-08T15:07:08.192Z,99963.44
2022-12-08T15:09:45.358Z,99963.93
2022-12-08T15:12:13.154Z,99962.17
2022-12-08T15:15:09.736Z,99918.51
2022-12-08T15:17:46.228Z,99962.77
2022-12-08T15:20:39.151Z,99964.10
2022-12-08T15:23:19.738Z,99959.82
2022-12-08T15:25:49.025Z,99961.83
2022-12-08T15:28:22.987Z,99960.58
2022-12-08T15:30:54.529Z,99959.85
2022-12-08T15:33:22.657Z,99956.00
2022-12-08T15:35:51.220Z,99953.37
2022-12-08T15:38:29.073Z,99949.25
2022-12-08T15:41:01.736Z,99953.52
2022-12-08T15:43:31.878Z,99955.62
2022-12-08T15:46:00.669Z,99956.98
2022-12-08T15:48:30.362Z,99963.00
2022-12-08T15:50:58.871Z,99968.59
2022-12-08T15:53:26.905Z,99968.91
2022-12-08T15:56:26.356Z,99969.76
2022-12-08T15:58:59.372Z,99970.96
2022-12-08T16:01:27.603Z,99969.70
2022-12-08T16:09:44.356Z,99965.82
2022-12-08T16:15:59.128Z,99961.73
2022-12-08T16:18:26.996Z,99956.44
2022-12-08T16:23:44.991Z,99957.89
2022-12-08T16:26:31.795Z,99955.92
2022-12-08T16:29:05.393Z,99954.70
2022-12-08T16:31:33.900Z,99950.53
2022-12-08T16:34:02.043Z,99947.93
2022-12-08T16:36:29.950Z,99949.70
2022-12-08T16:38:58.798Z,99951.38
2022-12-08T16:41:45.402Z,99951.70
2022-12-08T16:44:13.693Z,99932.65
2022-12-08T16:46:42.948Z,99960.13
2022-12-08T16:49:11.798Z,99957.42
2022-12-08T16:51:42.458Z,99958.35
2022-12-08T16:54:10.597Z,99959.33
2022-12-08T16:56:38.413Z,99960.17
2022-12-08T16:59:06.727Z,99960.23
2022-12-08T17:01:35.806Z,99955.73
2022-12-08T17:06:53.437Z,99955.95
2022-12-08T17:09:21.377Z,99954.19
2022-12-08T17:11:49.356Z,99952.52
2022-12-08T17:14:18.113Z,99952.02
2022-12-08T17:16:51.801Z,99952.63
2022-12-08T17:19:20.115Z,99950.85
2022-12-08T17:21:48.048Z,99950.66
2022-12-08T17:24:21.775Z,99950.23
2022-12-08T17:26:52.365Z,99947.73
2022-12-08T17:29:20.405Z,99953.17
2022-12-08T17:31:48.353Z,99951.84
2022-12-08T17:34:17.332Z,99949.30
2022-12-08T17:36:47.958Z,99946.95
2022-12-08T17:39:18.601Z,99947.87
2022-12-08T17:41:47.968Z,99949.63
2022-12-08T17:44:18.339Z,99953.78
2022-12-08T17:46:52.678Z,99959.27
2022-12-08T17:49:24.762Z,99959.64
2022-12-08T17:52:00.724Z,99963.33
2022-12-08T17:54:29.370Z,99966.17
2022-12-08T17:56:58.855Z,99965.20
2022-12-08T17:59:29.076Z,99953.31
2022-12-08T18:02:00.413Z,99967.78
2022-12-08T18:04:28.917Z,99969.12
2022-12-08T18:07:01.608Z,99970.81
2022-12-08T18:09:32.813Z,99969.73
2022-12-08T18:12:00.877Z,99963.96
2022-12-08T18:14:28.978Z,99969.58
2022-12-08T18:16:57.005Z,99970.98
2022-12-08T18:19:26.704Z,99967.09
2022-12-08T18:21:54.835Z,99970.29
2022-12-08T18:24:25.277Z,99962.49
2022-12-08T18:26:57.996Z,99961.84
2022-12-08T18:29:25.993Z,99958.96
2022-12-08T18:31:53.880Z,99949.02
2022-12-08T18:34:22.026Z,99952.71
2022-12-08T18:36:50.129Z,99947.11
2022-12-08T18:39:22.530Z,99946.66
2022-12-08T18:41:51.516Z,99943.83
2022-12-08T18:44:20.000Z,99943.61
2022-12-08T18:46:48.713Z,99943.69
2022-12-08T18:49:21.727Z,99938.67
2022-12-08T18:51:49.681Z,99946.23
2022-12-08T18:54:17.840Z,99943.96
2022-12-08T18:56:46.382Z,99941.65
2022-12-08T18:59:15.024Z,99941.98
2022-12-08T19:01:43.052Z,99942.54
2022-12-08T19:04:27.797Z,99939.10
2022-12-08T19:06:57.999Z,99941.00
2022-12-08T19:09:27.366Z,99942.61
2022-12-08T19:11:58.321Z,99945.00
2022-12-08T19:14:30.582Z,99946.18
2022-12-08T19:16:58.609Z,99946.37
2022-12-08T19:19:28.207Z,99945.21
2022-12-08T19:21:56.665Z,99948.05
2022-12-08T19:24:25.478Z,99947.00
2022-12-08T19:26:53.796Z,99947.55
2022-12-08T19:29:24.239Z,99943.60
2022-12-08T19:31:52.741Z,99944.49
2022-12-08T19:34:20.947Z,99949.52
2022-12-08T19:36:49.121Z,99952.71
2022-12-08T19:39:38.876Z,99959.43
2022-12-08T19:42:37.671Z,99957.17
2022-12-08T19:45:12.781Z,99950.04
2022-12-08T19:47:41.633Z,99954.96
2022-12-08T19:50:31.718Z,99950.24
2022-12-08T19:53:00.264Z,99950.55
2022-12-08T19:55:29.347Z,99946.55
2022-12-08T19:57:57.426Z,99947.16
2022-12-08T20:00:26.029Z,99953.59
2022-12-08T20:03:19.169Z,99949.29
2022-12-08T20:05:49.878Z,99947.52
2022-12-08T20:08:18.238Z,99936.03
2022-12-08T20:10:47.084Z,99949.68
2022-12-08T20:13:35.133Z,99951.71
2022-12-08T20:16:05.063Z,99950.79
2022-12-08T20:18:40.263Z,99952.84
2022-12-08T20:21:09.395Z,99951.60
2022-12-08T20:23:37.577Z,99955.19
2022-12-08T20:26:08.393Z,99942.98
2022-12-08T20:28:37.270Z,99957.64
2022-12-08T20:31:08.486Z,99935.69
2022-12-08T20:33:36.386Z,99956.67
2022-12-08T20:36:07.933Z,99955.27
2022-12-08T20:38:35.991Z,99955.88
2022-12-08T20:41:09.523Z,99955.61
2022-12-08T20:43:38.083Z,99950.13
2022-12-08T20:46:07.756Z,99951.71
2022-12-08T20:48:36.154Z,99953.45
2022-12-08T20:51:05.056Z,99955.12
2022-12-08T20:53:33.045Z,99955.07
2022-12-08T20:56:01.131Z,99956.54
2022-12-08T20:58:31.654Z,99957.31
2022-12-08T21:00:59.955Z,99954.93
2022-12-08T21:03:28.414Z,99952.70
2022-12-08T21:05:56.807Z,99954.30
2022-12-08T21:08:26.100Z,99958.17
2022-12-08T21:10:56.035Z,99954.88
2022-12-08T21:13:26.982Z,99958.41
2022-12-08T21:15:55.777Z,99954.23
2022-12-08T21:18:25.118Z,99953.30
2022-12-08T21:21:01.404Z,99954.52
2022-12-08T21:23:29.605Z,99941.41
2022-12-08T21:25:57.671Z,99957.50
2022-12-08T21:28:25.844Z,99956.86
2022-12-08T21:30:54.017Z,99958.48
2022-12-08T21:33:22.299Z,99956.89
2022-12-08T21:35:51.056Z,99959.85
2022-12-08T21:38:19.756Z,99955.02
2022-12-08T21:40:47.974Z,99953.34
2022-12-08T21:43:15.801Z,99955.14
2022-12-08T21:45:44.241Z,99951.38
2022-12-08T21:48:12.443Z,99938.66
2022-12-08T21:50:43.269Z,99947.13
2022-12-08T21:53:12.848Z,99949.96
2022-12-08T21:55:41.426Z,99947.83
2022-12-08T21:58:10.046Z,99947.19
2022-12-08T22:00:39.092Z,99947.30
2022-12-08T22:03:12.737Z,99946.19
2022-12-08T22:05:42.131Z,99943.98
2022-12-08T22:08:13.156Z,99943.14
2022-12-08T22:10:41.335Z,99941.63
2022-12-08T22:13:09.688Z,99942.02
2022-12-08T22:15:37.949Z,99942.10
2022-12-08T22:18:06.017Z,99942.92
2022-12-08T22:20:36.193Z,99940.08
2022-12-08T22:23:07.630Z,99937.54
2022-12-08T22:25:35.785Z,99939.77
2022-12-08T22:28:04.249Z,99936.23
2022-12-08T22:30:38.647Z,99939.77
2022-12-08T22:33:07.734Z,99934.67
2022-12-08T22:35:35.848Z,99935.27
2022-12-08T22:38:06.826Z,99934.84
2022-12-08T22:40:35.006Z,99934.73
2022-12-08T22:43:03.021Z,99936.55
2022-12-08T22:45:30.891Z,99937.95
2022-12-08T22:47:59.104Z,99937.86
2022-12-08T22:50:27.148Z,99922.50
2022-12-08T22:52:55.045Z,99936.01
2022-12-08T22:55:23.076Z,99936.09
2022-12-08T22:57:51.011Z,99938.42
2022-12-08T23:00:19.474Z,99935.88
2022-12-08T23:02:47.691Z,99935.77
2022-12-08T23:05:16.338Z,99939.68
2022-12-08T23:07:44.637Z,99915.14
2022-12-08T23:10:12.903Z,99938.98
2022-12-08T23:12:40.840Z,99941.98
2022-12-08T23:15:09.202Z,99941.73
2022-12-08T23:17:37.490Z,99939.87
2022-12-08T23:20:06.968Z,99942.73
2022-12-08T23:22:35.232Z,99938.33
2022-12-08T23:25:04.979Z,99938.07
2022-12-08T23:27:33.142Z,99939.30
2022-12-08T23:30:06.090Z,99939.86
2022-12-08T23:32:34.712Z,99941.73
2022-12-08T23:35:03.516Z,99944.47
2022-12-08T23:37:39.700Z,99947.92
2022-12-08T23:40:08.942Z,99952.64
2022-12-08T23:42:38.910Z,99952.67
2022-12-08T23:45:08.891Z,99946.21
2022-12-08T23:47:37.258Z,99947.98
2022-12-08T23:50:08.095Z,99944.48
2022-12-08T23:52:38.403Z,99942.70
2022-12-08T23:55:08.931Z,99940.05
2022-12-08T23:57:37.716Z,99940.50
